createdAt,value
2018-07-01T00:03:34.347Z,42.60
2018-07-01T00:05:45.038Z,42.20
2018-07-01T00:07:50.330Z,42.50
2018-07-01T00:09:55.541Z,42.50
2018-07-01T00:14:04.301Z,42.70
2018-07-01T00:16:08.898Z,42.80
2018-07-01T00:18:13.334Z,42.30
2018-07-01T00:20:18.590Z,43.20
2018-07-01T00:22:23.172Z,43.30
2018-07-01T00:24:27.684Z,43.30
2018-07-01T00:26:32.222Z,43.50
2018-07-01T00:28:36.771Z,43.70
2018-07-01T00:30:41.304Z,43.30
2018-07-01T00:32:45.807Z,43.20
2018-07-01T00:34:50.713Z,43.30
2018-07-01T00:36:55.479Z,43.30
2018-07-01T00:41:04.219Z,43.30
2018-07-01T00:43:08.785Z,43.40
2018-07-01T00:45:13.283Z,43.60
2018-07-01T00:47:17.767Z,43.80
2018-07-01T00:49:22.263Z,44.00
2018-07-01T00:51:26.784Z,44.30
2018-07-01T00:53:31.275Z,44.40
2018-07-01T00:57:40.152Z,44.90
2018-07-01T00:59:44.638Z,44.80
2018-07-01T01:01:49.992Z,44.80
2018-07-01T01:03:55.144Z,44.80
2018-07-01T01:06:01.673Z,44.80
2018-07-01T01:10:14.633Z,44.80
2018-07-01T01:12:20.685Z,45.10
2018-07-01T01:14:25.802Z,45.00
2018-07-01T01:16:31.748Z,45.10
2018-07-01T01:18:36.651Z,45.20
2018-07-01T01:20:41.568Z,45.20
2018-07-01T01:22:47.020Z,45.50
2018-07-01T01:24:51.975Z,45.60
2018-07-01T01:26:58.011Z,45.60
2018-07-01T01:29:05.754Z,45.50
2018-07-01T01:31:12.324Z,45.70
2018-07-01T01:33:19.204Z,45.60
2018-07-01T01:35:25.266Z,45.70
2018-07-01T01:37:29.814Z,45.70
2018-07-01T01:39:39.318Z,45.80
2018-07-01T01:41:49.999Z,45.70
2018-07-01T01:44:00.098Z,45.90
2018-07-01T01:46:09.756Z,45.80
2018-07-01T01:48:20.906Z,46.00
2018-07-01T01:50:34.242Z,45.80
2018-07-01T01:52:44.115Z,46.00
2018-07-01T01:54:53.951Z,46.20
2018-07-01T01:58:01.800Z,45.90
2018-07-01T02:00:12.372Z,46.20
2018-07-01T02:02:22.226Z,46.90
2018-07-01T02:04:35.711Z,46.50
2018-07-01T02:06:46.418Z,46.40
2018-07-01T02:08:59.938Z,46.80
2018-07-01T02:13:08.826Z,47.10
2018-07-01T02:15:16.972Z,47.30
2018-07-01T02:17:25.526Z,47.20
2018-07-01T02:19:30.117Z,47.40
2018-07-01T02:21:34.674Z,47.70
2018-07-01T02:23:43.118Z,48.00
2018-07-01T02:25:47.726Z,48.00
2018-07-01T02:27:52.249Z,48.20
2018-07-01T02:29:57.347Z,48.10
2018-07-01T02:32:01.843Z,48.30
2018-07-01T02:34:06.310Z,48.30
2018-07-01T02:36:10.807Z,48.30
2018-07-01T02:38:15.282Z,48.60
2018-07-01T02:40:19.766Z,48.50
2018-07-01T02:42:24.446Z,48.50
2018-07-01T02:44:28.921Z,48.50
2018-07-01T02:46:33.601Z,48.50
2018-07-01T02:48:38.372Z,48.50
2018-07-01T02:50:42.842Z,48.80
2018-07-01T02:52:47.327Z,48.90
2018-07-01T02:54:52.499Z,49.00
2018-07-01T02:56:57.061Z,48.30
2018-07-01T02:59:01.546Z,49.00
2018-07-01T03:01:06.042Z,48.90
2018-07-01T03:03:10.599Z,49.00
2018-07-01T03:05:15.038Z,49.10
2018-07-01T03:07:19.558Z,49.00
2018-07-01T03:09:23.990Z,49.20
2018-07-01T03:11:28.499Z,49.30
2018-07-01T03:13:32.974Z,49.40
2018-07-01T03:15:37.422Z,49.50
2018-07-01T03:17:41.926Z,49.50
2018-07-01T03:19:46.421Z,49.60
2018-07-01T03:21:50.863Z,49.60
2018-07-01T03:23:55.354Z,49.60
2018-07-01T03:25:59.891Z,49.70
2018-07-01T03:28:05.115Z,49.60
2018-07-01T03:30:09.687Z,49.60
2018-07-01T03:32:14.106Z,49.50
2018-07-01T03:34:18.575Z,49.70
2018-07-01T03:36:23.049Z,49.90
2018-07-01T03:38:27.588Z,50.30
2018-07-01T03:40:33.089Z,50.40
2018-07-01T03:42:37.629Z,50.60
2018-07-01T03:44:42.062Z,50.50
2018-07-01T03:46:46.534Z,50.50
2018-07-01T03:48:51.006Z,50.20
2018-07-01T03:50:55.491Z,50.40
2018-07-01T03:52:59.972Z,49.90
2018-07-01T03:55:04.462Z,50.40
2018-07-01T03:57:08.991Z,50.50
2018-07-01T03:59:13.946Z,50.70
2018-07-01T04:01:18.690Z,50.50
2018-07-01T04:03:23.217Z,50.40
2018-07-01T04:05:29.093Z,50.70
2018-07-01T04:07:33.578Z,50.20
2018-07-01T04:09:40.481Z,50.60
2018-07-01T04:11:45.541Z,50.90
2018-07-01T04:13:51.183Z,51.10
2018-07-01T04:15:57.506Z,51.30
2018-07-01T04:20:09.303Z,51.40
2018-07-01T04:22:15.563Z,51.50
2018-07-01T04:24:21.563Z,51.50
2018-07-01T04:26:27.154Z,51.70
2018-07-01T04:28:34.080Z,51.80
2018-07-01T04:30:40.960Z,51.80
2018-07-01T04:32:46.657Z,52.00
2018-07-01T04:34:51.965Z,52.10
2018-07-01T04:36:57.145Z,52.10
2018-07-01T04:39:03.531Z,52.20
2018-07-01T04:41:09.471Z,52.30
2018-07-01T04:43:14.059Z,52.50
2018-07-01T04:45:18.522Z,52.70
2018-07-01T04:47:22.998Z,52.80
2018-07-01T04:49:27.501Z,52.80
2018-07-01T04:51:31.946Z,52.90
2018-07-01T04:53:36.444Z,52.20
2018-07-01T04:55:40.905Z,52.50
2018-07-01T04:57:45.437Z,52.90
2018-07-01T04:59:49.875Z,52.80
2018-07-01T05:01:58.253Z,52.90
2018-07-01T05:04:02.924Z,53.10
2018-07-01T05:06:07.406Z,53.60
2018-07-01T05:08:11.900Z,53.60
2018-07-01T05:10:16.488Z,53.90
2018-07-01T05:12:21.006Z,54.10
2018-07-01T05:14:25.458Z,53.60
2018-07-01T05:16:29.918Z,53.90
2018-07-01T05:20:38.627Z,54.30
2018-07-01T05:22:43.167Z,54.50
2018-07-01T05:24:47.654Z,54.40
2018-07-01T05:26:52.122Z,54.50
2018-07-01T05:28:56.648Z,54.60
2018-07-01T05:31:01.226Z,54.40
2018-07-01T05:33:06.172Z,54.40
2018-07-01T05:35:10.664Z,54.30
2018-07-01T05:37:15.152Z,54.70
2018-07-01T05:39:19.686Z,55.00
2018-07-01T05:41:24.399Z,55.00
2018-07-01T05:45:33.032Z,54.90
2018-07-01T05:47:37.723Z,54.20
2018-07-01T05:49:42.239Z,51.60
2018-07-01T05:51:46.690Z,50.50
2018-07-01T05:53:51.276Z,50.80
2018-07-01T05:55:55.858Z,50.00
2018-07-01T05:58:00.363Z,48.90
2018-07-01T06:00:05.518Z,48.80
2018-07-01T06:02:10.218Z,48.70
2018-07-01T06:04:15.027Z,47.70
2018-07-01T06:06:19.602Z,47.70
2018-07-01T06:08:24.225Z,46.60
2018-07-01T06:10:28.815Z,46.40
2018-07-01T06:12:33.299Z,45.70
2018-07-01T06:14:38.101Z,45.60
2018-07-01T06:16:42.775Z,45.30
2018-07-01T06:20:51.494Z,44.90
2018-07-01T06:22:56.092Z,44.90
2018-07-01T06:25:01.947Z,44.00
2018-07-01T06:27:06.788Z,43.60
2018-07-01T06:29:11.276Z,42.90
2018-07-01T06:31:16.487Z,42.50
2018-07-01T06:33:21.561Z,41.90
2018-07-01T06:35:26.197Z,41.70
2018-07-01T06:37:30.714Z,41.10
2018-07-01T06:39:35.415Z,41.20
2018-07-01T06:41:40.593Z,41.00
2018-07-01T06:43:45.189Z,40.60
2018-07-01T06:45:49.638Z,40.90
2018-07-01T06:47:54.141Z,40.10
2018-07-01T06:49:59.387Z,39.80
2018-07-01T06:52:04.024Z,40.10
2018-07-01T06:54:08.537Z,39.50
2018-07-01T06:56:13.083Z,39.90
2018-07-01T06:58:17.671Z,39.40
2018-07-01T07:00:22.177Z,38.90
2018-07-01T07:02:26.713Z,38.50
2018-07-01T07:04:31.166Z,37.80
2018-07-01T07:06:36.719Z,37.80
2018-07-01T07:08:41.646Z,38.10
2018-07-01T07:10:46.829Z,38.00
2018-07-01T07:12:51.263Z,37.60
2018-07-01T07:14:57.366Z,37.50
2018-07-01T07:17:03.023Z,37.10
2018-07-01T07:19:07.868Z,36.40
2018-07-01T07:21:12.531Z,36.10
2018-07-01T07:23:17.092Z,35.10
2018-07-01T07:25:21.582Z,35.40
2018-07-01T07:29:30.237Z,34.90
2018-07-01T07:31:34.777Z,34.30
2018-07-01T07:33:39.270Z,34.30
2018-07-01T07:35:43.748Z,33.70
2018-07-01T07:37:48.223Z,33.10
2018-07-01T07:39:52.713Z,32.80
2018-07-01T07:41:57.271Z,32.80
2018-07-01T07:44:01.762Z,32.60
2018-07-01T07:46:06.578Z,32.80
2018-07-01T07:48:11.091Z,32.60
2018-07-01T07:50:17.844Z,32.40
2018-07-01T07:52:22.394Z,32.30
2018-07-01T07:54:26.860Z,32.40
2018-07-01T07:58:36.478Z,31.00
2018-07-01T08:00:40.975Z,30.70
2018-07-01T08:02:45.468Z,30.60
2018-07-01T08:04:49.941Z,30.90
2018-07-01T08:06:54.476Z,30.90
2018-07-01T08:08:58.989Z,30.40
2018-07-01T08:11:03.562Z,30.00
2018-07-01T08:13:10.155Z,30.00
2018-07-01T08:15:16.344Z,30.20
2018-07-01T08:17:21.274Z,29.90
2018-07-01T08:19:25.757Z,29.70
2018-07-01T08:21:30.274Z,29.50
2018-07-01T08:23:35.059Z,29.40
2018-07-01T08:25:39.534Z,28.80
2018-07-01T08:27:44.117Z,28.60
2018-07-01T08:29:48.615Z,29.00
2018-07-01T08:31:53.198Z,29.20
2018-07-01T08:33:57.689Z,28.60
2018-07-01T08:36:02.201Z,28.60
2018-07-01T08:38:06.700Z,28.60
2018-07-01T08:40:11.196Z,27.50
2018-07-01T08:42:30.579Z,27.70
2018-07-01T08:44:37.374Z,27.90
2018-07-01T08:46:41.845Z,27.80
2018-07-01T08:48:46.409Z,26.70
2018-07-01T08:50:50.903Z,26.90
2018-07-01T08:52:55.415Z,26.90
2018-07-01T08:55:00.177Z,27.40
2018-07-01T08:57:04.965Z,27.50
2018-07-01T08:59:09.791Z,27.30
2018-07-01T09:01:16.041Z,27.10
2018-07-01T09:03:20.741Z,27.10
2018-07-01T09:05:25.427Z,27.10
2018-07-01T09:07:29.987Z,26.80
2018-07-01T09:09:34.487Z,26.80
2018-07-01T09:11:39.186Z,26.40
2018-07-01T09:13:44.326Z,26.10
2018-07-01T09:15:50.473Z,26.30
2018-07-01T09:17:56.543Z,25.60
2018-07-01T09:20:03.479Z,26.10
2018-07-01T09:22:09.061Z,26.40
2018-07-01T09:24:16.675Z,25.70
2018-07-01T09:26:21.139Z,26.40
2018-07-01T09:28:25.670Z,26.20
2018-07-01T09:30:30.258Z,26.20
2018-07-01T09:32:37.160Z,26.10
2018-07-01T09:34:41.780Z,25.60
2018-07-01T09:36:46.898Z,25.90
2018-07-01T09:38:51.434Z,25.90
2018-07-01T09:40:56.004Z,25.50
2018-07-01T09:43:00.586Z,25.70
2018-07-01T09:45:07.152Z,26.20
2018-07-01T09:47:11.711Z,25.60
2018-07-01T09:49:16.199Z,25.20
2018-07-01T09:51:20.655Z,25.40
2018-07-01T09:53:25.134Z,25.40
2018-07-01T09:55:29.634Z,25.50
2018-07-01T09:57:34.358Z,25.50
2018-07-01T09:59:38.841Z,25.40
2018-07-01T10:01:43.415Z,25.30
2018-07-01T10:03:48.026Z,25.10
2018-07-01T10:05:52.499Z,25.10
2018-07-01T10:07:57.069Z,24.60
2018-07-01T10:10:04.994Z,24.70
2018-07-01T10:12:09.545Z,24.60
2018-07-01T10:14:14.066Z,24.70
2018-07-01T10:16:18.762Z,24.40
2018-07-01T10:18:23.374Z,24.30
2018-07-01T10:20:27.903Z,24.10
2018-07-01T10:22:32.351Z,24.20
2018-07-01T10:24:37.643Z,24.20
2018-07-01T10:26:42.177Z,24.50
2018-07-01T10:29:13.222Z,24.10
2018-07-01T10:31:18.653Z,24.20
2018-07-01T10:33:23.515Z,24.10
2018-07-01T10:35:27.980Z,24.00
2018-07-01T10:37:32.560Z,23.90
2018-07-01T10:39:37.095Z,24.00
2018-07-01T10:41:41.613Z,24.30
2018-07-01T10:43:46.122Z,23.60
2018-07-01T10:45:50.741Z,23.70
2018-07-01T10:47:55.835Z,23.70
2018-07-01T10:50:00.354Z,23.20
2018-07-01T10:52:04.838Z,23.20
2018-07-01T10:54:09.530Z,23.10
2018-07-01T10:56:14.038Z,22.80
2018-07-01T10:58:18.937Z,23.20
2018-07-01T11:00:23.419Z,23.40
2018-07-01T11:02:27.995Z,23.20
2018-07-01T11:04:35.953Z,23.20
2018-07-01T11:06:40.421Z,23.20
2018-07-01T11:08:44.889Z,23.30
2018-07-01T11:10:49.372Z,23.30
2018-07-01T11:12:54.061Z,23.40
2018-07-01T11:14:59.419Z,23.40
2018-07-01T11:17:03.989Z,22.90
2018-07-01T11:19:11.427Z,22.40
2018-07-01T11:21:15.866Z,22.50
2018-07-01T11:23:20.484Z,22.30
2018-07-01T11:25:25.019Z,22.30
2018-07-01T11:27:29.575Z,22.20
2018-07-01T11:29:34.120Z,22.10
2018-07-01T11:31:39.478Z,22.30
2018-07-01T11:33:43.955Z,22.40
2018-07-01T11:35:48.428Z,22.80
2018-07-01T11:37:53.093Z,23.10
2018-07-01T11:39:57.684Z,22.80
2018-07-01T11:42:02.152Z,22.70
2018-07-01T11:44:06.670Z,22.80
2018-07-01T11:46:11.179Z,22.90
2018-07-01T11:48:15.634Z,22.40
2018-07-01T11:50:20.170Z,22.60
2018-07-01T11:52:24.694Z,22.40
2018-07-01T11:54:29.154Z,22.00
2018-07-01T11:56:33.632Z,22.30
2018-07-01T11:58:38.107Z,22.30
2018-07-01T12:00:42.654Z,22.50
2018-07-01T12:02:47.115Z,21.90
2018-07-01T12:05:16.207Z,22.40
2018-07-01T12:06:56.218Z,23.10
2018-07-01T12:09:00.778Z,22.80
2018-07-01T12:11:05.278Z,22.30
2018-07-01T12:13:09.750Z,22.50
2018-07-01T12:15:14.253Z,22.30
2018-07-01T12:17:19.444Z,22.10
2018-07-01T12:19:23.889Z,21.80
2018-07-01T12:25:37.488Z,21.80
2018-07-01T12:27:42.021Z,21.70
2018-07-01T12:29:46.549Z,21.30
2018-07-01T12:31:51.026Z,21.20
2018-07-01T12:33:55.520Z,21.20
2018-07-01T12:36:00.523Z,21.60
2018-07-01T12:38:05.006Z,21.80
2018-07-01T12:40:09.610Z,21.80
2018-07-01T12:44:18.773Z,21.70
2018-07-01T12:46:23.301Z,21.80
2018-07-01T12:48:27.782Z,22.00
2018-07-01T12:50:32.319Z,21.40
2018-07-01T12:52:36.791Z,21.60
2018-07-01T12:54:41.289Z,21.50
2018-07-01T12:56:45.829Z,21.30
2018-07-01T12:58:50.338Z,21.00
2018-07-01T13:00:54.918Z,21.00
2018-07-01T13:03:00.103Z,20.90
2018-07-01T13:05:04.617Z,20.70
2018-07-01T13:09:14.157Z,20.80
2018-07-01T13:11:18.632Z,20.50
2018-07-01T13:13:23.090Z,20.70
2018-07-01T13:15:27.593Z,20.80
2018-07-01T13:17:32.034Z,20.80
2018-07-01T13:19:36.503Z,21.00
2018-07-01T13:21:41.052Z,20.80
2018-07-01T13:23:45.498Z,20.60
2018-07-01T13:25:49.970Z,20.50
2018-07-01T13:27:54.484Z,20.60
2018-07-01T13:30:00.068Z,20.60
2018-07-01T13:32:05.382Z,20.40
2018-07-01T13:34:09.874Z,21.10
2018-07-01T13:36:14.373Z,21.00
2018-07-01T13:38:18.801Z,20.90
2018-07-01T13:40:23.305Z,20.90
2018-07-01T13:42:27.797Z,20.20
2018-07-01T13:44:32.284Z,20.40
2018-07-01T13:48:41.235Z,20.20
2018-07-01T13:50:45.719Z,20.20
2018-07-01T13:52:50.293Z,20.10
2018-07-01T13:54:54.733Z,20.40
2018-07-01T13:56:59.488Z,20.30
2018-07-01T13:59:04.155Z,20.10
2018-07-01T14:01:08.734Z,20.10
2018-07-01T14:03:13.249Z,19.70
2018-07-01T14:05:17.741Z,20.20
2018-07-01T14:07:22.400Z,20.20
2018-07-01T14:09:26.893Z,20.00
2018-07-01T14:11:31.381Z,19.70
2018-07-01T14:13:35.827Z,19.40
2018-07-01T14:17:45.674Z,19.80
2018-07-01T14:19:50.157Z,19.80
2018-07-01T14:21:54.688Z,19.90
2018-07-01T14:23:59.166Z,19.80
2018-07-01T14:26:04.490Z,20.00
2018-07-01T14:28:08.961Z,19.80
2018-07-01T14:30:13.449Z,20.00
2018-07-01T14:32:17.964Z,19.90
2018-07-01T14:34:22.495Z,19.70
2018-07-01T14:36:27.104Z,19.60
2018-07-01T14:38:31.819Z,19.70
2018-07-01T14:40:36.263Z,19.40
2018-07-01T14:42:40.855Z,19.80
2018-07-01T14:44:45.308Z,19.00
2018-07-01T14:46:49.807Z,19.30
2018-07-01T14:48:54.305Z,19.50
2018-07-01T14:50:58.810Z,19.40
2018-07-01T14:53:03.345Z,19.60
2018-07-01T14:55:07.884Z,19.80
2018-07-01T14:57:13.463Z,19.80
2018-07-01T14:59:17.919Z,20.50
2018-07-01T15:01:22.553Z,19.80
2018-07-01T15:03:27.066Z,20.00
2018-07-01T15:05:31.489Z,19.30
2018-07-01T15:07:35.941Z,19.30
2018-07-01T15:09:40.401Z,19.50
2018-07-01T15:11:44.891Z,19.10
2018-07-01T15:13:49.350Z,19.00
2018-07-01T15:15:53.790Z,19.40
2018-07-01T15:17:58.330Z,18.60
2018-07-01T15:20:02.802Z,18.70
2018-07-01T15:22:07.413Z,18.50
2018-07-01T15:24:11.819Z,19.20
2018-07-01T15:26:16.361Z,18.90
2018-07-01T15:30:26.130Z,18.40
2018-07-01T15:34:34.854Z,19.20
2018-07-01T15:36:39.434Z,18.30
2018-07-01T15:38:44.542Z,18.40
2018-07-01T15:40:49.065Z,18.30
2018-07-01T15:42:53.545Z,18.40
2018-07-01T15:44:58.075Z,18.30
2018-07-01T15:47:03.110Z,18.40
2018-07-01T15:49:07.581Z,18.90
2018-07-01T15:51:12.061Z,18.30
2018-07-01T15:53:16.591Z,18.70
2018-07-01T15:55:21.079Z,18.70
2018-07-01T15:57:25.544Z,19.10
2018-07-01T15:59:30.028Z,19.10
2018-07-01T16:01:34.487Z,19.50
2018-07-01T16:03:38.958Z,19.40
2018-07-01T16:05:43.393Z,19.10
2018-07-01T16:07:47.899Z,19.10
2018-07-01T16:09:52.363Z,19.10
2018-07-01T16:11:56.939Z,19.30
2018-07-01T16:14:01.397Z,19.60
2018-07-01T16:16:06.136Z,19.20
2018-07-01T16:18:10.683Z,19.40
2018-07-01T16:20:15.215Z,19.30
2018-07-01T16:22:19.738Z,18.60
2018-07-01T16:24:24.402Z,18.60
2018-07-01T16:26:34.161Z,18.30
2018-07-01T16:28:46.530Z,18.50
2018-07-01T16:30:50.999Z,18.30
2018-07-01T16:32:55.587Z,18.70
2018-07-01T16:35:00.175Z,18.80
2018-07-01T16:37:04.676Z,19.20
2018-07-01T16:39:12.641Z,19.20
2018-07-01T16:41:17.737Z,19.40
2018-07-01T16:43:22.276Z,19.40
2018-07-01T16:45:26.751Z,19.30
2018-07-01T16:47:31.292Z,19.50
2018-07-01T16:49:35.802Z,20.00
2018-07-01T16:51:40.331Z,20.20
2018-07-01T16:53:44.830Z,20.10
2018-07-01T16:55:49.313Z,20.60
2018-07-01T16:57:53.782Z,20.40
2018-07-01T16:59:58.310Z,20.70
2018-07-01T17:02:03.962Z,20.50
2018-07-01T17:04:08.459Z,20.60
2018-07-01T17:06:12.894Z,20.90
2018-07-01T17:08:17.389Z,21.20
2018-07-01T17:10:21.895Z,21.30
2018-07-01T17:12:26.357Z,21.50
2018-07-01T17:14:30.829Z,20.70
2018-07-01T17:18:40.016Z,21.70
2018-07-01T17:20:44.518Z,22.20
2018-07-01T17:22:49.034Z,22.50
2018-07-01T17:24:53.535Z,22.10
2018-07-01T17:26:57.993Z,22.00
2018-07-01T17:29:02.481Z,22.30
2018-07-01T17:31:12.378Z,21.80
2018-07-01T17:33:22.253Z,21.60
2018-07-01T17:35:26.709Z,22.10
2018-07-01T17:37:31.333Z,22.60
2018-07-01T17:39:35.813Z,22.00
2018-07-01T17:41:40.818Z,22.10
2018-07-01T17:43:45.316Z,22.20
2018-07-01T17:45:49.799Z,22.30
2018-07-01T17:47:54.347Z,22.30
2018-07-01T17:49:59.623Z,22.60
2018-07-01T17:52:04.622Z,23.10
2018-07-01T17:54:09.148Z,22.60
2018-07-01T17:56:13.819Z,23.10
2018-07-01T17:58:18.321Z,22.70
2018-07-01T18:00:22.880Z,23.00
2018-07-01T18:02:27.349Z,23.00
2018-07-01T18:04:31.808Z,22.50
2018-07-01T18:06:36.353Z,23.00
2018-07-01T18:08:41.498Z,23.80
2018-07-01T18:10:46.213Z,23.80
2018-07-01T18:12:50.646Z,23.50
2018-07-01T18:14:55.223Z,23.30
2018-07-01T18:16:59.719Z,23.10
2018-07-01T18:19:05.229Z,23.60
2018-07-01T18:21:09.857Z,24.40
2018-07-01T18:25:18.474Z,25.10
2018-07-01T18:27:22.912Z,25.40
2018-07-01T18:29:27.406Z,25.50
2018-07-01T18:31:31.856Z,25.60
2018-07-01T18:33:36.322Z,26.10
2018-07-01T18:35:40.914Z,26.40
2018-07-01T18:37:45.438Z,26.40
2018-07-01T18:39:50.515Z,25.90
2018-07-01T18:41:54.943Z,25.60
2018-07-01T18:43:59.531Z,25.90
2018-07-01T18:46:04.055Z,25.80
2018-07-01T18:48:08.704Z,26.10
2018-07-01T18:50:13.211Z,26.30
2018-07-01T18:52:17.750Z,26.30
2018-07-01T18:54:22.283Z,26.80
2018-07-01T18:56:26.842Z,27.00
2018-07-01T18:58:31.419Z,27.30
2018-07-01T19:00:36.010Z,27.40
2018-07-01T19:02:40.561Z,27.20
2018-07-01T19:04:45.697Z,27.30
2018-07-01T19:06:50.229Z,27.30
2018-07-01T19:08:54.665Z,27.70
2018-07-01T19:11:00.913Z,27.70
2018-07-01T19:13:06.639Z,27.70
2018-07-01T19:15:11.132Z,27.80
2018-07-01T19:17:15.769Z,28.40
2018-07-01T19:19:20.227Z,28.00
2018-07-01T19:23:30.126Z,28.30
2018-07-01T19:25:35.220Z,28.40
2018-07-01T19:27:39.751Z,28.40
2018-07-01T19:29:44.209Z,28.60
2018-07-01T19:33:53.098Z,28.70
2018-07-01T19:35:57.694Z,28.80
2018-07-01T19:38:02.229Z,29.00
2018-07-01T19:40:06.747Z,29.20
2018-07-01T19:42:11.257Z,29.20
2018-07-01T19:44:16.574Z,29.20
2018-07-01T19:46:21.309Z,29.20
2018-07-01T19:48:26.358Z,29.00
2018-07-01T19:50:30.965Z,28.90
2018-07-01T19:52:35.935Z,29.00
2018-07-01T19:54:40.498Z,29.10
2018-07-01T19:56:45.017Z,29.10
2018-07-01T19:58:49.506Z,29.30
2018-07-01T20:00:54.056Z,29.40
2018-07-01T20:02:59.596Z,29.20
2018-07-01T20:05:04.187Z,29.40
2018-07-01T20:07:09.667Z,29.60
2018-07-01T20:09:15.622Z,29.80
2018-07-01T20:11:20.094Z,30.00
2018-07-01T20:13:24.592Z,29.90
2018-07-01T20:15:29.065Z,30.10
2018-07-01T20:17:33.565Z,30.20
2018-07-01T20:19:38.038Z,30.40
2018-07-01T20:21:42.546Z,30.50
2018-07-01T20:23:47.098Z,30.80
2018-07-01T20:25:52.063Z,30.70
2018-07-01T20:27:56.689Z,31.00
2018-07-01T20:30:01.170Z,31.10
2018-07-01T20:32:06.962Z,31.30
2018-07-01T20:34:11.402Z,31.50
2018-07-01T20:36:15.995Z,31.70
2018-07-01T20:38:20.665Z,31.90
2018-07-01T20:40:25.191Z,32.20
2018-07-01T20:42:29.676Z,32.40
2018-07-01T20:44:34.117Z,32.60
2018-07-01T20:46:39.347Z,32.70
2018-07-01T20:48:43.789Z,32.90
2018-07-01T20:50:48.316Z,33.10
2018-07-01T20:52:52.766Z,33.50
2018-07-01T20:54:57.335Z,33.60
2018-07-01T20:57:01.879Z,34.00
2018-07-01T20:59:07.394Z,34.20
2018-07-01T21:01:13.761Z,34.20
2018-07-01T21:03:18.371Z,34.50
2018-07-01T21:05:22.854Z,34.80
2018-07-01T21:07:27.343Z,34.80
2018-07-01T21:09:31.878Z,35.00
2018-07-01T21:11:36.595Z,35.10
2018-07-01T21:13:41.063Z,35.40
2018-07-01T21:15:45.552Z,35.70
2018-07-01T21:17:50.108Z,36.00
2018-07-01T21:19:54.653Z,36.20
2018-07-01T21:21:59.169Z,36.50
2018-07-01T21:24:03.793Z,36.60
2018-07-01T21:26:08.378Z,36.50
2018-07-01T21:28:12.978Z,36.70
2018-07-01T21:30:17.441Z,36.80
2018-07-01T21:32:22.330Z,37.00
2018-07-01T21:34:35.174Z,37.00
2018-07-01T21:36:40.467Z,37.30
2018-07-01T21:38:45.031Z,37.20
2018-07-01T21:40:49.507Z,37.20
2018-07-01T21:42:54.089Z,37.20
2018-07-01T21:47:03.075Z,37.40
2018-07-01T21:51:13.011Z,37.30
2018-07-01T21:53:17.570Z,37.60
2018-07-01T21:55:22.739Z,37.50
2018-07-01T21:57:28.065Z,37.40
2018-07-01T21:59:32.598Z,37.60
2018-07-01T22:01:37.162Z,37.90
2018-07-01T22:03:41.934Z,37.80
2018-07-01T22:05:46.406Z,38.00
2018-07-01T22:07:50.878Z,38.10
2018-07-01T22:09:55.374Z,38.20
2018-07-01T22:12:17.010Z,38.20
2018-07-01T22:14:29.064Z,38.30
2018-07-01T22:16:33.578Z,38.60
2018-07-01T22:20:42.439Z,39.00
2018-07-01T22:22:47.734Z,38.30
2018-07-01T22:24:52.232Z,38.60
2018-07-01T22:26:56.795Z,39.10
2018-07-01T22:29:01.246Z,39.10
2018-07-01T22:31:05.821Z,39.20
2018-07-01T22:33:10.435Z,39.10
2018-07-01T22:35:15.900Z,39.20
2018-07-01T22:37:21.521Z,39.10
2018-07-01T22:39:28.044Z,39.10
2018-07-01T22:41:32.563Z,39.00
2018-07-01T22:43:37.106Z,39.20
2018-07-01T22:45:41.688Z,38.90
2018-07-01T22:47:46.281Z,39.10
2018-07-01T22:49:50.774Z,39.10
2018-07-01T22:51:55.392Z,38.50
2018-07-01T22:53:59.933Z,39.20
2018-07-01T22:56:05.605Z,39.30
2018-07-01T22:58:10.189Z,39.50
2018-07-01T23:00:14.815Z,39.50
2018-07-01T23:03:02.830Z,39.40
2018-07-01T23:05:07.179Z,39.40
2018-07-01T23:07:11.658Z,39.30
2018-07-01T23:09:16.729Z,39.50
2018-07-01T23:11:21.735Z,39.60
2018-07-01T23:13:26.462Z,39.50
2018-07-01T23:15:31.021Z,39.60
2018-07-01T23:17:35.762Z,39.80
2018-07-01T23:19:40.350Z,39.90
2018-07-01T23:21:44.947Z,40.10
2018-07-01T23:23:49.456Z,40.00
2018-07-01T23:25:53.962Z,39.80
2018-07-01T23:28:00.588Z,40.10
2018-07-01T23:30:05.402Z,40.10
2018-07-01T23:32:09.902Z,40.10
2018-07-01T23:34:14.365Z,40.20
2018-07-01T23:36:18.858Z,40.30
2018-07-01T23:38:23.457Z,40.50
2018-07-01T23:40:28.404Z,40.60
2018-07-01T23:42:32.969Z,40.70
2018-07-01T23:44:37.602Z,40.80
2018-07-01T23:46:42.078Z,41.00
2018-07-01T23:48:46.563Z,41.10
2018-07-01T23:50:51.090Z,41.20
2018-07-01T23:52:55.525Z,41.20
2018-07-01T23:57:04.397Z,41.20
